createdAt,value
2023-03-26T00:02:14.895Z,2.00
2023-03-26T00:04:41.289Z,1.92
2023-03-26T00:07:07.672Z,2.63
2023-03-26T00:09:34.121Z,2.22
2023-03-26T00:12:00.454Z,2.30
2023-03-26T00:14:26.822Z,2.65
2023-03-26T00:16:53.294Z,3.08
2023-03-26T00:19:19.702Z,2.42
2023-03-26T00:21:46.049Z,2.17
2023-03-26T00:24:13.780Z,2.75
2023-03-26T00:26:40.693Z,2.42
2023-03-26T00:29:07.921Z,2.20
2023-03-26T00:31:35.175Z,2.17
2023-03-26T00:34:01.508Z,2.05
2023-03-26T00:36:27.986Z,2.28
2023-03-26T00:38:54.889Z,2.22
2023-03-26T00:41:26.364Z,2.55
2023-03-26T00:44:00.616Z,3.60
2023-03-26T00:46:29.924Z,3.63
2023-03-26T00:48:56.797Z,3.08
2023-03-26T00:51:23.242Z,3.58
2023-03-26T00:53:50.672Z,3.40
2023-03-26T00:56:17.778Z,3.00
2023-03-26T00:58:45.066Z,2.85
2023-03-26T01:01:14.666Z,2.88
2023-03-26T01:03:53.085Z,2.85
2023-03-26T01:06:34.350Z,3.22
2023-03-26T01:09:14.689Z,2.85
2023-03-26T01:11:43.591Z,4.07
2023-03-26T01:14:20.293Z,3.70
2023-03-26T01:16:53.519Z,3.28
2023-03-26T01:19:46.861Z,3.00
2023-03-26T01:22:17.874Z,3.35
2023-03-26T01:24:45.575Z,3.33
2023-03-26T01:27:27.799Z,3.55
2023-03-26T01:29:59.877Z,3.10
2023-03-26T01:32:37.409Z,3.40
2023-03-26T01:35:12.887Z,3.67
2023-03-26T01:37:46.865Z,3.80
2023-03-26T01:40:34.079Z,3.25
2023-03-26T01:43:10.032Z,3.75
2023-03-26T01:45:39.729Z,3.55
2023-03-26T01:48:07.013Z,3.55
2023-03-26T01:50:33.407Z,3.80
2023-03-26T01:53:00.490Z,3.60
2023-03-26T01:55:42.074Z,3.33
2023-03-26T01:58:21.257Z,3.38
2023-03-26T02:01:05.427Z,4.40
2023-03-26T02:03:44.325Z,3.88
2023-03-26T02:06:34.271Z,3.63
2023-03-26T02:09:08.937Z,3.70
2023-03-26T02:11:38.118Z,3.42
2023-03-26T02:14:07.315Z,3.25
2023-03-26T02:16:33.907Z,3.08
2023-03-26T02:19:00.398Z,3.35
2023-03-26T02:21:27.951Z,3.40
2023-03-26T02:23:57.421Z,3.88
2023-03-26T02:26:24.301Z,3.42
2023-03-26T02:28:50.695Z,3.55
2023-03-26T02:31:17.142Z,3.67
2023-03-26T02:33:43.547Z,3.70
2023-03-26T02:36:10.972Z,3.90
2023-03-26T02:38:37.368Z,3.67
2023-03-26T02:41:04.754Z,3.83
2023-03-26T02:43:31.305Z,3.78
2023-03-26T02:45:58.156Z,3.13
2023-03-26T02:48:24.811Z,3.55
2023-03-26T02:50:51.613Z,3.63
2023-03-26T02:53:18.001Z,3.72
2023-03-26T02:55:44.625Z,3.30
2023-03-26T02:58:11.048Z,4.57
2023-03-26T03:00:38.104Z,5.45
2023-03-26T03:03:04.558Z,4.38
2023-03-26T03:05:32.698Z,4.50
2023-03-26T03:07:59.216Z,4.70
2023-03-26T03:10:26.468Z,4.40
2023-03-26T03:12:53.020Z,4.95
2023-03-26T03:15:19.888Z,4.50
2023-03-26T03:17:47.164Z,4.53
2023-03-26T03:20:13.694Z,5.57
2023-03-26T03:22:40.187Z,3.90
2023-03-26T03:25:07.097Z,4.70
2023-03-26T03:27:33.459Z,5.22
2023-03-26T03:29:59.984Z,4.32
2023-03-26T03:32:26.567Z,4.47
2023-03-26T03:34:52.958Z,4.35
2023-03-26T03:37:20.077Z,3.97
2023-03-26T03:39:46.392Z,5.00
2023-03-26T03:42:12.792Z,4.47
2023-03-26T03:44:39.143Z,3.67
2023-03-26T03:47:05.664Z,3.92
2023-03-26T03:49:32.151Z,4.40
2023-03-26T03:51:58.465Z,3.95
2023-03-26T03:54:24.753Z,4.13
2023-03-26T03:56:51.191Z,3.53
2023-03-26T03:59:17.581Z,4.57
2023-03-26T04:01:43.975Z,4.40
2023-03-26T04:04:10.570Z,4.00
2023-03-26T04:06:36.989Z,4.78
2023-03-26T04:09:03.483Z,4.43
2023-03-26T04:11:29.934Z,4.70
2023-03-26T04:13:56.329Z,4.68
2023-03-26T04:16:22.723Z,3.85
2023-03-26T04:18:49.134Z,4.18
2023-03-26T04:21:15.513Z,3.47
2023-03-26T04:23:41.890Z,4.15
2023-03-26T04:26:15.438Z,4.22
2023-03-26T04:28:47.954Z,4.45
2023-03-26T04:31:18.439Z,4.10
2023-03-26T04:33:47.009Z,4.25
2023-03-26T04:36:15.448Z,4.68
2023-03-26T04:38:46.590Z,3.72
2023-03-26T04:41:14.875Z,4.88
2023-03-26T04:43:42.218Z,4.45
2023-03-26T04:46:09.663Z,4.50
2023-03-26T04:48:36.914Z,5.32
2023-03-26T04:51:03.482Z,4.55
2023-03-26T04:53:30.033Z,5.03
2023-03-26T04:56:05.916Z,4.32
2023-03-26T04:58:32.351Z,4.88
2023-03-26T05:01:00.350Z,4.63
2023-03-26T05:03:36.559Z,4.70
2023-03-26T05:06:02.960Z,5.35
2023-03-26T05:08:29.304Z,4.65
2023-03-26T05:10:56.677Z,4.68
2023-03-26T05:13:23.826Z,4.65
2023-03-26T05:15:50.516Z,5.20
2023-03-26T05:18:17.939Z,4.63
2023-03-26T05:20:45.400Z,5.00
2023-03-26T05:23:11.814Z,5.35
2023-03-26T05:25:39.268Z,4.75
2023-03-26T05:28:05.635Z,5.60
2023-03-26T05:30:32.122Z,5.30
2023-03-26T05:32:58.576Z,5.07
2023-03-26T05:35:24.980Z,5.38
2023-03-26T05:37:51.359Z,4.90
2023-03-26T05:40:17.911Z,4.45
2023-03-26T05:42:44.815Z,4.53
2023-03-26T05:45:13.538Z,5.80
2023-03-26T05:47:39.971Z,4.25
2023-03-26T05:50:08.314Z,5.22
2023-03-26T05:52:34.760Z,5.03
2023-03-26T05:55:01.475Z,5.10
2023-03-26T05:57:31.439Z,5.18
2023-03-26T05:59:57.908Z,4.25
2023-03-26T06:02:24.385Z,4.65
2023-03-26T06:04:51.012Z,5.10
2023-03-26T06:07:18.312Z,4.00
2023-03-26T06:09:46.854Z,4.18
2023-03-26T06:12:13.796Z,4.43
2023-03-26T06:14:40.455Z,4.32
2023-03-26T06:17:06.761Z,3.97
2023-03-26T06:19:33.169Z,5.20
2023-03-26T06:21:59.645Z,5.50
2023-03-26T06:24:26.188Z,4.90
2023-03-26T06:26:52.672Z,4.32
2023-03-26T06:29:19.244Z,5.32
2023-03-26T06:31:45.671Z,4.25
2023-03-26T06:34:12.145Z,4.15
2023-03-26T06:36:38.637Z,5.00
2023-03-26T06:39:07.629Z,5.75
2023-03-26T06:41:36.013Z,4.90
2023-03-26T06:44:02.367Z,5.55
2023-03-26T06:46:30.259Z,5.32
2023-03-26T06:48:56.672Z,6.50
2023-03-26T06:51:23.046Z,5.47
2023-03-26T06:53:49.365Z,6.38
2023-03-26T06:56:15.711Z,5.80
2023-03-26T06:58:42.184Z,5.22
2023-03-26T07:01:08.629Z,6.90
2023-03-26T07:03:35.238Z,7.18
2023-03-26T07:06:01.838Z,5.70
2023-03-26T07:08:33.931Z,5.40
2023-03-26T07:11:00.511Z,6.57
2023-03-26T07:13:26.954Z,5.95
2023-03-26T07:15:53.259Z,6.18
2023-03-26T07:18:19.666Z,6.85
2023-03-26T07:20:46.782Z,7.40
2023-03-26T07:23:13.623Z,6.47
2023-03-26T07:25:40.224Z,6.47
2023-03-26T07:28:32.321Z,6.75
2023-03-26T07:31:16.814Z,6.53
2023-03-26T07:34:21.247Z,8.25
2023-03-26T07:37:12.502Z,6.05
2023-03-26T07:39:54.975Z,5.53
2023-03-26T07:42:50.036Z,7.38
2023-03-26T07:45:42.600Z,6.68
2023-03-26T07:48:24.252Z,6.10
2023-03-26T07:50:51.185Z,5.90
2023-03-26T07:53:17.858Z,6.35
2023-03-26T07:55:53.001Z,7.38
2023-03-26T07:58:30.218Z,6.28
2023-03-26T08:01:08.311Z,6.07
2023-03-26T08:03:43.693Z,7.03
2023-03-26T08:06:24.067Z,5.88
2023-03-26T08:09:18.032Z,6.28
2023-03-26T08:11:47.231Z,5.97
2023-03-26T08:14:22.701Z,5.53
2023-03-26T08:17:07.791Z,5.63
2023-03-26T08:19:43.917Z,5.05
2023-03-26T08:22:19.203Z,4.63
2023-03-26T08:25:06.589Z,4.93
2023-03-26T08:27:39.346Z,4.45
2023-03-26T08:30:14.806Z,4.07
2023-03-26T08:32:41.471Z,4.85
2023-03-26T08:35:12.263Z,4.45
2023-03-26T08:37:38.587Z,4.15
2023-03-26T08:40:05.298Z,4.30
2023-03-26T08:42:44.851Z,3.80
2023-03-26T08:45:20.067Z,3.92
2023-03-26T08:48:24.120Z,3.90
2023-03-26T08:51:09.292Z,3.42
2023-03-26T08:53:54.347Z,3.92
2023-03-26T08:56:30.763Z,3.95
2023-03-26T08:59:45.235Z,3.40
2023-03-26T09:02:14.638Z,3.67
2023-03-26T09:05:07.784Z,3.78
2023-03-26T09:07:52.596Z,3.72
2023-03-26T09:10:51.071Z,3.60
2023-03-26T09:14:01.907Z,3.17
2023-03-26T09:16:53.336Z,3.90
2023-03-26T09:19:49.204Z,3.17
2023-03-26T09:22:43.582Z,2.90
2023-03-26T09:25:48.066Z,2.45
2023-03-26T09:28:32.533Z,2.80
2023-03-26T09:31:16.877Z,3.20
2023-03-26T09:33:57.148Z,3.60
2023-03-26T09:36:42.248Z,3.30
2023-03-26T09:39:08.524Z,4.45
2023-03-26T09:42:00.604Z,3.45
2023-03-26T09:44:38.740Z,3.97
2023-03-26T09:47:33.082Z,3.28
2023-03-26T09:50:23.850Z,3.88
2023-03-26T09:53:12.552Z,2.80
2023-03-26T09:56:14.890Z,3.47
2023-03-26T09:58:56.497Z,3.47
2023-03-26T10:01:50.818Z,3.50
2023-03-26T10:04:42.885Z,3.45
2023-03-26T10:07:30.516Z,3.47
2023-03-26T10:10:24.650Z,2.97
2023-03-26T10:13:08.070Z,3.78
2023-03-26T10:16:08.087Z,3.10
2023-03-26T10:19:14.183Z,2.28
2023-03-26T10:21:48.640Z,2.55
2023-03-26T10:24:44.785Z,2.45
2023-03-26T10:27:19.945Z,2.67
2023-03-26T10:30:17.663Z,2.75
2023-03-26T10:32:53.292Z,2.28
2023-03-26T10:35:43.684Z,2.33
2023-03-26T10:38:31.172Z,2.28
2023-03-26T10:41:21.318Z,2.53
2023-03-26T10:44:08.472Z,2.80
2023-03-26T10:47:00.089Z,2.20
2023-03-26T10:50:12.072Z,2.17
2023-03-26T10:52:46.596Z,2.45
2023-03-26T10:55:25.836Z,2.90
2023-03-26T10:58:16.838Z,2.22
2023-03-26T11:00:52.857Z,1.98
2023-03-26T11:03:49.618Z,2.58
2023-03-26T11:06:36.180Z,2.22
2023-03-26T11:09:20.366Z,2.15
2023-03-26T11:12:26.634Z,2.67
2023-03-26T11:15:15.878Z,2.83
2023-03-26T11:17:58.872Z,2.17
2023-03-26T11:20:41.541Z,2.10
2023-03-26T11:23:26.174Z,2.90
2023-03-26T11:25:59.774Z,1.70
2023-03-26T11:28:39.286Z,1.95
2023-03-26T11:31:27.588Z,2.30
2023-03-26T11:34:00.419Z,2.10
2023-03-26T11:36:31.852Z,2.20
2023-03-26T11:39:02.463Z,2.00
2023-03-26T11:41:30.230Z,1.85
2023-03-26T11:43:59.634Z,1.80
2023-03-26T11:46:26.699Z,2.10
2023-03-26T11:48:57.814Z,2.13
2023-03-26T11:51:31.724Z,1.65
2023-03-26T11:53:58.822Z,1.20
2023-03-26T11:56:32.185Z,1.52
2023-03-26T11:59:21.659Z,1.63
2023-03-26T12:01:57.008Z,2.13
2023-03-26T12:04:44.363Z,2.67
2023-03-26T12:07:18.430Z,2.38
2023-03-26T12:09:57.088Z,1.75
2023-03-26T12:12:46.639Z,2.63
2023-03-26T12:15:18.182Z,2.42
2023-03-26T12:17:46.536Z,1.90
2023-03-26T12:20:25.227Z,1.60
2023-03-26T12:22:56.052Z,1.50
2023-03-26T12:25:24.684Z,1.33
2023-03-26T12:28:02.609Z,2.10
2023-03-26T12:30:31.959Z,1.95
2023-03-26T12:33:01.331Z,1.67
2023-03-26T12:35:30.031Z,2.80
2023-03-26T12:38:15.314Z,1.60
2023-03-26T12:40:43.213Z,1.50
2023-03-26T12:44:47.107Z,1.48
2023-03-26T12:47:54.619Z,1.30
2023-03-26T12:49:11.030Z,2.08
2023-03-26T12:51:52.730Z,1.50
2023-03-26T12:54:49.131Z,1.67
2023-03-26T12:57:19.127Z,1.92
2023-03-26T12:59:55.565Z,2.00
2023-03-26T13:02:34.341Z,1.70
2023-03-26T13:05:25.318Z,1.85
2023-03-26T13:07:58.165Z,1.77
2023-03-26T13:11:05.718Z,1.60
2023-03-26T13:14:11.485Z,1.33
2023-03-26T13:16:46.606Z,1.70
2023-03-26T13:19:25.275Z,2.05
2023-03-26T13:22:19.952Z,1.50
2023-03-26T13:25:25.216Z,1.52
2023-03-26T13:27:59.688Z,1.40
2023-03-26T13:30:48.476Z,1.50
2023-03-26T13:33:29.520Z,1.27
2023-03-26T13:36:14.314Z,1.48
2023-03-26T13:38:58.971Z,1.40
2023-03-26T13:41:29.737Z,1.90
2023-03-26T13:44:02.229Z,1.58
2023-03-26T13:46:28.563Z,1.60
2023-03-26T13:49:02.808Z,1.98
2023-03-26T13:51:32.005Z,1.27
2023-03-26T13:54:07.610Z,1.95
2023-03-26T13:56:45.618Z,1.25
2023-03-26T13:59:26.537Z,1.30
2023-03-26T14:01:57.030Z,1.27
2023-03-26T14:04:32.285Z,1.60
2023-03-26T14:07:20.705Z,1.90
2023-03-26T14:10:10.393Z,1.88
2023-03-26T14:12:59.557Z,1.40
2023-03-26T14:15:56.265Z,1.77
2023-03-26T14:18:27.093Z,1.50
2023-03-26T14:21:35.214Z,1.50
2023-03-26T14:24:25.832Z,1.08
2023-03-26T14:27:01.340Z,1.85
2023-03-26T14:29:58.531Z,1.65
2023-03-26T14:32:35.962Z,1.40
2023-03-26T14:35:32.578Z,1.27
2023-03-26T14:38:29.752Z,1.77
2023-03-26T14:40:58.593Z,1.90
2023-03-26T14:43:46.527Z,1.60
2023-03-26T14:46:39.261Z,1.73
2023-03-26T14:49:36.666Z,0.98
2023-03-26T14:52:20.251Z,1.05
2023-03-26T14:54:51.617Z,1.25
2023-03-26T14:57:23.803Z,1.27
2023-03-26T15:00:29.235Z,0.90
2023-03-26T15:02:58.369Z,1.30
2023-03-26T15:05:47.108Z,1.42
2023-03-26T15:09:02.621Z,1.35
2023-03-26T15:12:12.310Z,1.52
2023-03-26T15:15:03.217Z,1.80
2023-03-26T15:17:35.182Z,1.95
2023-03-26T15:20:23.062Z,1.40
2023-03-26T15:23:13.956Z,1.60
2023-03-26T15:26:18.086Z,1.75
2023-03-26T15:29:06.041Z,1.30
2023-03-26T15:31:55.549Z,1.63
2023-03-26T15:34:51.575Z,1.20
2023-03-26T15:37:52.755Z,1.35
2023-03-26T15:40:28.546Z,1.80
2023-03-26T15:42:57.974Z,1.88
2023-03-26T15:45:36.638Z,1.50
2023-03-26T15:48:12.250Z,1.88
2023-03-26T15:51:01.506Z,1.58
2023-03-26T15:54:06.939Z,1.88
2023-03-26T15:56:51.784Z,1.80
2023-03-26T15:59:36.571Z,1.80
2023-03-26T16:02:37.314Z,1.67
2023-03-26T16:05:22.651Z,1.58
2023-03-26T16:08:06.803Z,1.67
2023-03-26T16:10:35.957Z,1.70
2023-03-26T16:13:34.064Z,1.70
2023-03-26T16:16:03.568Z,1.23
2023-03-26T16:18:35.334Z,1.73
2023-03-26T16:21:32.024Z,1.40
2023-03-26T16:24:01.785Z,1.13
2023-03-26T16:26:57.994Z,1.65
2023-03-26T16:29:26.178Z,1.40
2023-03-26T16:32:11.193Z,0.93
2023-03-26T16:34:49.582Z,1.38
2023-03-26T16:37:37.358Z,1.13
2023-03-26T16:40:19.088Z,1.48
2023-03-26T16:43:07.467Z,1.45
2023-03-26T16:46:06.152Z,1.30
2023-03-26T16:48:37.671Z,1.48
2023-03-26T16:51:08.826Z,1.40
2023-03-26T16:53:45.080Z,1.23
2023-03-26T16:56:16.537Z,1.40
2023-03-26T16:58:55.058Z,1.40
2023-03-26T17:01:43.118Z,1.33
2023-03-26T17:04:27.449Z,1.20
2023-03-26T17:07:06.045Z,1.30
2023-03-26T17:09:54.301Z,1.20
2023-03-26T17:12:48.421Z,1.30
2023-03-26T17:15:37.781Z,1.40
2023-03-26T17:18:35.533Z,1.30
2023-03-26T17:21:12.912Z,1.58
2023-03-26T17:23:55.006Z,1.60
2023-03-26T17:26:27.104Z,1.45
2023-03-26T17:29:32.528Z,1.40
2023-03-26T17:32:13.625Z,1.58
2023-03-26T17:34:40.131Z,1.85
2023-03-26T17:37:18.647Z,1.23
2023-03-26T17:39:45.334Z,1.70
2023-03-26T17:42:29.053Z,1.42
2023-03-26T17:44:57.496Z,1.88
2023-03-26T17:47:41.105Z,1.98
2023-03-26T17:50:15.064Z,1.70
2023-03-26T17:52:51.457Z,1.35
2023-03-26T17:55:25.788Z,1.48
2023-03-26T17:57:57.447Z,1.52
2023-03-26T18:00:29.523Z,1.10
2023-03-26T18:02:58.957Z,1.42
2023-03-26T18:05:29.375Z,1.77
2023-03-26T18:08:17.543Z,1.67
2023-03-26T18:11:06.061Z,1.33
2023-03-26T18:14:00.476Z,1.25
2023-03-26T18:16:45.257Z,1.60
2023-03-26T18:19:15.045Z,1.52
2023-03-26T18:21:41.339Z,2.13
2023-03-26T18:24:13.363Z,1.63
2023-03-26T18:26:42.310Z,1.50
2023-03-26T18:29:29.782Z,1.15
2023-03-26T18:32:01.402Z,1.55
2023-03-26T18:34:33.039Z,1.83
2023-03-26T18:37:14.025Z,1.20
2023-03-26T18:40:00.547Z,1.52
2023-03-26T18:42:29.685Z,1.10
2023-03-26T18:44:59.647Z,1.33
2023-03-26T18:47:29.746Z,1.27
2023-03-26T18:49:57.991Z,1.58
2023-03-26T18:52:28.212Z,1.10
2023-03-26T18:54:56.599Z,1.25
2023-03-26T18:57:28.757Z,0.98
2023-03-26T19:00:05.338Z,1.33
2023-03-26T19:02:31.824Z,1.13
2023-03-26T19:05:01.314Z,1.08
2023-03-26T19:07:27.775Z,1.30
2023-03-26T19:09:54.576Z,1.10
2023-03-26T19:12:27.805Z,1.60
2023-03-26T19:15:07.201Z,0.80
2023-03-26T19:17:39.928Z,0.98
2023-03-26T19:20:13.219Z,1.20
2023-03-26T19:22:39.543Z,1.17
2023-03-26T19:25:06.973Z,1.05
2023-03-26T19:27:33.458Z,1.38
2023-03-26T19:29:59.804Z,1.17
2023-03-26T19:32:31.178Z,1.40
2023-03-26T19:34:59.636Z,1.10
2023-03-26T19:37:29.102Z,1.48
2023-03-26T19:40:02.789Z,1.35
2023-03-26T19:42:43.411Z,1.27
2023-03-26T19:45:21.761Z,1.27
2023-03-26T19:47:57.309Z,1.30
2023-03-26T19:50:35.973Z,1.10
2023-03-26T19:53:16.090Z,1.20
2023-03-26T19:55:57.267Z,1.20
2023-03-26T19:58:24.839Z,1.45
2023-03-26T20:00:51.504Z,0.80
2023-03-26T20:03:26.567Z,1.30
2023-03-26T20:05:52.972Z,1.27
2023-03-26T20:08:19.946Z,1.20
2023-03-26T20:10:46.312Z,1.30
2023-03-26T20:13:16.877Z,1.15
2023-03-26T20:15:50.490Z,1.10
2023-03-26T20:18:32.745Z,1.00
2023-03-26T20:20:59.046Z,1.45
2023-03-26T20:23:25.504Z,1.08
2023-03-26T20:25:53.136Z,1.20
2023-03-26T20:28:20.061Z,1.00
2023-03-26T20:30:50.313Z,1.25
2023-03-26T20:33:25.679Z,1.23
2023-03-26T20:35:53.600Z,1.30
2023-03-26T20:38:24.066Z,0.93
2023-03-26T20:40:56.212Z,0.88
2023-03-26T20:43:22.790Z,0.90
2023-03-26T20:45:49.440Z,1.35
2023-03-26T20:48:15.817Z,0.93
2023-03-26T20:50:50.451Z,1.17
2023-03-26T20:53:17.564Z,1.17
2023-03-26T20:55:44.524Z,1.38
2023-03-26T20:58:13.609Z,0.98
2023-03-26T21:00:40.124Z,1.20
2023-03-26T21:03:06.489Z,1.38
2023-03-26T21:05:34.554Z,1.00
2023-03-26T21:08:01.170Z,1.20
2023-03-26T21:10:28.263Z,0.90
2023-03-26T21:12:57.655Z,1.20
2023-03-26T21:15:25.404Z,0.70
2023-03-26T21:17:52.382Z,1.30
2023-03-26T21:20:19.861Z,1.30
2023-03-26T21:23:10.016Z,1.00
2023-03-26T21:25:48.169Z,1.30
2023-03-26T21:28:41.823Z,0.98
2023-03-26T21:31:15.390Z,0.93
2023-03-26T21:33:41.831Z,0.98
2023-03-26T21:36:08.713Z,0.90
2023-03-26T21:38:35.384Z,1.10
2023-03-26T21:41:02.134Z,1.05
2023-03-26T21:43:29.077Z,0.90
2023-03-26T21:45:56.071Z,1.30
2023-03-26T21:48:22.747Z,1.08
2023-03-26T21:50:49.794Z,1.17
2023-03-26T21:53:16.605Z,1.05
2023-03-26T21:55:52.085Z,1.23
2023-03-26T21:58:54.411Z,1.20
2023-03-26T22:01:46.846Z,1.20
2023-03-26T22:04:34.782Z,0.90
2023-03-26T22:07:07.481Z,1.20
2023-03-26T22:09:36.505Z,1.17
2023-03-26T22:12:04.289Z,0.90
2023-03-26T22:14:30.693Z,0.90
2023-03-26T22:16:57.070Z,0.73
2023-03-26T22:19:23.381Z,0.95
2023-03-26T22:21:49.752Z,1.30
2023-03-26T22:24:16.098Z,1.30
2023-03-26T22:26:42.485Z,1.20
2023-03-26T22:29:08.879Z,0.98
2023-03-26T22:31:38.271Z,1.10
2023-03-26T22:34:37.667Z,0.80
2023-03-26T22:37:12.580Z,1.33
2023-03-26T22:39:43.513Z,1.10
2023-03-26T22:42:21.530Z,1.40
2023-03-26T22:44:53.782Z,1.00
2023-03-26T22:47:26.519Z,1.00
2023-03-26T22:50:07.409Z,1.55
2023-03-26T22:52:40.041Z,1.30
2023-03-26T22:55:29.246Z,1.40
2023-03-26T22:58:03.578Z,1.08
2023-03-26T23:00:31.595Z,1.20
2023-03-26T23:02:58.045Z,0.90
2023-03-26T23:05:24.505Z,1.25
2023-03-26T23:07:50.994Z,0.85
2023-03-26T23:10:17.771Z,1.30
2023-03-26T23:12:44.483Z,0.90
2023-03-26T23:15:11.329Z,0.95
2023-03-26T23:17:38.223Z,0.90
2023-03-26T23:20:07.378Z,0.95
2023-03-26T23:22:33.815Z,1.48
2023-03-26T23:25:00.199Z,1.13
2023-03-26T23:27:26.576Z,1.77
2023-03-26T23:29:52.965Z,1.13
2023-03-26T23:32:23.783Z,1.00
2023-03-26T23:34:51.757Z,0.88
2023-03-26T23:37:18.735Z,1.00
2023-03-26T23:39:45.030Z,1.60
2023-03-26T23:42:11.347Z,1.48
2023-03-26T23:44:37.696Z,1.10
2023-03-26T23:47:04.044Z,0.65
2023-03-26T23:49:30.415Z,1.00
2023-03-26T23:51:56.794Z,1.20
2023-03-26T23:54:23.117Z,0.93
2023-03-26T23:56:49.494Z,1.15
2023-03-26T23:59:15.906Z,1.40
